- বাংলা English

**** Phone: +880 2 9123838, 9135742, 9141437 ## Fax: +880 2 8118230, 9119230, 9103908 ## e-mail: info@bmd.gov.bd, swc@bmd.gov.bd

TAF

 VGHS 181700Z 1818/1924 14006KT 3500 HZ SCT015 BKN100
           TEMPO 1818/1824 18025KT 2000 RA/TSRA BKN008 FEW025CB OVC090
           BECMG 1904/1906 18012KT 4000 HZ SCT015 BKN100
          TEMPO 1904/1912 19025KT 2000 RA/TSRA BKN007 FEW025CB OVC090
          BECMG 1918/1920 14006KT 3500 HZ SCT015 SCT100=

VGSY 181000Z 1812/1918 32005KT 4500HZ SCT015 BKN100
          BECMG 1818/1820 06004KT 4000HZ SCT015 BKN100
          BECMG 1823/1901 05004KT 3500HZ SCT012 BKN100
          TEMPO 1812/1918 32025G35KT 1500 TSRA/RA BKN006 FEW025CB OVC080=

VGEG 181100Z 1812/1918 22010/12KT 4500 HZ SCT013 BKN100
          TEMPO 1815/1821 23025G35KT 2500 RA/TSRA BKN008 FEW026CB OVC090
          BECMG 1823/1901 00000KT 4000 HZ SCT013 BKN100
          BECMG 1902/1904 18010KT 5000 SCT015 BKN100
          TEMPO 1911/1916 22025G35KT 2500 RA/TSRA BKN008 FEW026CB OVC090=